createdAt,value
2018-07-23T00:01:34.304Z,67.13
2018-07-23T00:04:39.711Z,66.83
2018-07-23T00:07:44.872Z,67.13
2018-07-23T00:10:52.245Z,67.19
2018-07-23T00:13:58.005Z,67.28
2018-07-23T00:17:04.949Z,66.51
2018-07-23T00:20:11.046Z,67.94
2018-07-23T00:23:16.168Z,67.44
2018-07-23T00:26:21.315Z,67.06
2018-07-23T00:29:26.504Z,67.51
2018-07-23T00:32:31.678Z,68.13
2018-07-23T00:35:37.663Z,67.68
2018-07-23T00:38:43.306Z,67.45
2018-07-23T00:41:49.771Z,67.82
2018-07-23T00:44:55.975Z,67.29
2018-07-23T00:48:01.725Z,67.77
2018-07-23T00:51:07.531Z,68.34
2018-07-23T00:54:12.671Z,68.35
2018-07-23T00:57:17.896Z,67.96
2018-07-23T01:00:23.070Z,68.32
2018-07-23T01:03:27.954Z,67.97
2018-07-23T01:06:34.088Z,68.15
2018-07-23T01:09:40.126Z,68.35
2018-07-23T01:12:46.276Z,68.14
2018-07-23T01:15:52.354Z,68.02
2018-07-23T01:18:58.170Z,68.39
2018-07-23T01:22:05.298Z,68.87
2018-07-23T01:25:11.620Z,68.39
2018-07-23T01:28:17.258Z,68.48
2018-07-23T01:31:23.379Z,68.66
2018-07-23T01:34:29.307Z,68.56
2018-07-23T01:37:35.067Z,68.76
2018-07-23T01:40:40.809Z,68.85
2018-07-23T01:43:46.478Z,68.83
2018-07-23T01:46:52.858Z,68.94
2018-07-23T01:49:57.974Z,68.66
2018-07-23T01:53:03.629Z,69.40
2018-07-23T01:56:10.102Z,69.14
2018-07-23T01:59:16.075Z,69.16
2018-07-23T02:02:22.483Z,69.56
2018-07-23T02:05:28.069Z,69.19
2018-07-23T02:08:33.190Z,69.88
2018-07-23T02:11:38.690Z,68.88
2018-07-23T02:14:43.802Z,69.97
2018-07-23T02:17:48.944Z,69.90
2018-07-23T02:20:54.437Z,69.07
2018-07-23T02:24:00.021Z,69.46
2018-07-23T02:27:05.231Z,69.28
2018-07-23T02:30:10.974Z,69.03
2018-07-23T02:33:16.082Z,69.61
2018-07-23T02:36:21.238Z,68.96
2018-07-23T02:39:26.374Z,69.29
2018-07-23T02:42:31.722Z,70.03
2018-07-23T02:45:36.839Z,70.41
2018-07-23T02:48:42.167Z,69.46
2018-07-23T02:51:47.314Z,69.55
2018-07-23T02:54:52.446Z,69.87
2018-07-23T02:57:58.220Z,70.37
2018-07-23T03:01:03.342Z,70.42
2018-07-23T03:04:09.498Z,70.05
2018-07-23T03:07:15.234Z,70.04
2018-07-23T03:10:21.226Z,69.62
2018-07-23T03:13:28.258Z,70.88
2018-07-23T03:16:34.623Z,70.01
2018-07-23T03:19:40.251Z,70.06
2018-07-23T03:22:46.343Z,70.84
2018-07-23T03:25:52.814Z,70.55
2018-07-23T03:28:59.266Z,70.77
2018-07-23T03:32:06.674Z,71.22
2018-07-23T03:35:12.510Z,70.74
2018-07-23T03:38:17.653Z,71.05
2018-07-23T03:41:23.934Z,70.47
2018-07-23T03:44:29.806Z,71.00
2018-07-23T03:47:34.926Z,70.68
2018-07-23T03:50:40.451Z,71.42
2018-07-23T03:53:46.598Z,70.91
2018-07-23T03:56:52.371Z,71.37
2018-07-23T03:59:57.750Z,71.05
2018-07-23T04:03:03.526Z,71.34
2018-07-23T04:06:09.186Z,70.55
2018-07-23T04:09:14.309Z,69.99
2018-07-23T04:12:19.466Z,70.25
2018-07-23T04:15:25.998Z,70.81
2018-07-23T04:18:32.314Z,71.22
2018-07-23T04:21:38.658Z,69.95
2018-07-23T04:24:44.501Z,70.47
2018-07-23T04:27:49.630Z,70.65
2018-07-23T04:30:54.803Z,69.88
2018-07-23T04:33:59.954Z,69.70
2018-07-23T04:37:06.614Z,70.21
2018-07-23T04:40:12.133Z,70.72
2018-07-23T04:43:17.290Z,69.82
2018-07-23T04:46:23.360Z,69.68
2018-07-23T04:49:29.328Z,69.10
2018-07-23T04:52:34.830Z,69.47
2018-07-23T04:55:40.295Z,69.09
2018-07-23T04:58:45.469Z,70.21
2018-07-23T05:01:51.474Z,70.44
2018-07-23T05:04:57.490Z,71.22
2018-07-23T05:08:03.399Z,71.15
2018-07-23T05:11:09.428Z,71.23
2018-07-23T05:14:16.116Z,71.71
2018-07-23T05:17:23.133Z,71.52
2018-07-23T05:20:29.363Z,72.41
2018-07-23T05:23:36.688Z,70.78
2018-07-23T05:26:42.731Z,70.60
2018-07-23T05:29:48.735Z,70.43
2018-07-23T05:32:54.839Z,70.37
2018-07-23T05:36:00.908Z,71.46
2018-07-23T05:39:09.081Z,70.87
2018-07-23T05:42:15.126Z,70.88
2018-07-23T05:45:21.215Z,69.77
2018-07-23T05:48:28.634Z,69.14
2018-07-23T05:51:35.571Z,70.10
2018-07-23T05:54:41.927Z,69.88
2018-07-23T05:57:47.831Z,69.63
2018-07-23T06:00:54.659Z,69.74
2018-07-23T06:04:01.250Z,70.55
2018-07-23T06:07:07.010Z,70.62
2018-07-23T06:10:12.874Z,70.43
2018-07-23T06:13:18.643Z,70.35
2018-07-23T06:16:24.457Z,69.96
2018-07-23T06:19:30.329Z,69.83
2018-07-23T06:22:35.477Z,69.58
2018-07-23T06:25:40.895Z,69.58
2018-07-23T06:28:46.892Z,69.67
2018-07-23T06:31:51.794Z,69.58
2018-07-23T06:34:57.163Z,69.15
2018-07-23T06:38:02.809Z,70.35
2018-07-23T06:41:09.214Z,71.06
2018-07-23T06:44:14.374Z,70.20
2018-07-23T06:47:19.518Z,71.61
2018-07-23T06:50:25.413Z,70.02
2018-07-23T06:53:32.124Z,70.31
2018-07-23T06:56:38.114Z,70.21
2018-07-23T06:59:43.294Z,70.97
2018-07-23T07:02:49.605Z,69.47
2018-07-23T07:05:56.442Z,69.64
2018-07-23T07:09:02.830Z,69.20
2018-07-23T07:12:09.496Z,69.71
2018-07-23T07:15:15.539Z,69.90
2018-07-23T07:18:21.610Z,70.35
2018-07-23T07:21:28.510Z,69.75
2018-07-23T07:24:34.506Z,69.20
2018-07-23T07:27:40.158Z,70.04
2018-07-23T07:30:45.332Z,70.43
2018-07-23T07:33:50.487Z,70.04
2018-07-23T07:36:55.638Z,69.82
2018-07-23T07:40:01.230Z,69.64
2018-07-23T07:43:06.129Z,69.52
2018-07-23T07:46:11.920Z,69.85
2018-07-23T07:49:17.080Z,69.71
2018-07-23T07:52:23.594Z,70.42
2018-07-23T07:55:29.930Z,70.20
2018-07-23T07:58:35.848Z,70.86
2018-07-23T08:01:42.053Z,69.48
2018-07-23T08:04:48.914Z,69.58
2018-07-23T08:07:54.649Z,69.54
2018-07-23T08:10:59.755Z,69.13
2018-07-23T08:14:04.950Z,69.04
2018-07-23T08:17:10.174Z,69.21
2018-07-23T08:20:16.501Z,69.17
2018-07-23T08:23:22.571Z,68.49
2018-07-23T08:26:29.098Z,69.83
2018-07-23T08:29:34.692Z,68.93
2018-07-23T08:32:40.989Z,69.08
2018-07-23T08:35:46.903Z,69.12
2018-07-23T08:38:52.397Z,68.70
2018-07-23T08:41:57.725Z,67.98
2018-07-23T08:45:04.312Z,67.67
2018-07-23T08:48:11.133Z,68.25
2018-07-23T08:51:17.094Z,68.24
2018-07-23T08:54:23.159Z,67.31
2018-07-23T08:57:28.392Z,67.20
2018-07-23T09:00:34.610Z,67.07
2018-07-23T09:03:40.729Z,67.15
2018-07-23T09:06:46.786Z,66.94
2018-07-23T09:09:53.636Z,67.65
2018-07-23T09:12:59.573Z,67.75
2018-07-23T09:16:06.057Z,67.05
2018-07-23T09:19:12.132Z,67.21
2018-07-23T09:22:18.850Z,66.59
2018-07-23T09:25:29.127Z,66.58
2018-07-23T09:28:34.631Z,67.11
2018-07-23T09:31:40.688Z,67.71
2018-07-23T09:34:46.762Z,67.27
2018-07-23T09:37:52.970Z,66.08
2018-07-23T09:40:58.112Z,65.79
2018-07-23T09:44:03.913Z,66.26
2018-07-23T09:47:09.485Z,66.47
2018-07-23T09:50:14.655Z,65.97
2018-07-23T09:53:21.039Z,65.39
2018-07-23T09:56:26.958Z,65.61
2018-07-23T09:59:32.881Z,65.50
2018-07-23T10:02:38.013Z,65.01
2018-07-23T10:05:44.174Z,64.16
2018-07-23T10:08:49.970Z,63.79
2018-07-23T10:11:55.142Z,62.42
2018-07-23T10:15:01.171Z,61.66
2018-07-23T10:18:07.057Z,62.29
2018-07-23T10:21:12.258Z,60.87
2018-07-23T10:24:17.744Z,62.05
2018-07-23T10:27:22.899Z,62.90
2018-07-23T10:30:28.105Z,62.68
2018-07-23T10:33:33.277Z,62.69
2018-07-23T10:36:39.994Z,61.64
2018-07-23T10:39:46.187Z,61.82
2018-07-23T10:42:52.626Z,61.16
2018-07-23T10:45:57.763Z,60.77
2018-07-23T10:49:02.982Z,61.89
2018-07-23T10:52:10.074Z,61.78
2018-07-23T10:55:16.057Z,61.88
2018-07-23T10:58:21.188Z,61.37
2018-07-23T11:01:27.602Z,61.41
2018-07-23T11:04:33.335Z,61.98
2018-07-23T11:07:39.570Z,61.59
2018-07-23T11:10:45.563Z,61.94
2018-07-23T11:13:52.034Z,61.48
2018-07-23T11:16:57.957Z,61.86
2018-07-23T11:20:03.835Z,61.55
2018-07-23T11:23:09.820Z,60.56
2018-07-23T11:26:16.162Z,60.40
2018-07-23T11:29:21.830Z,60.83
2018-07-23T11:32:27.008Z,60.67
2018-07-23T11:35:32.159Z,61.24
2018-07-23T11:38:37.658Z,60.80
2018-07-23T11:41:42.802Z,60.47
2018-07-23T11:44:48.236Z,60.39
2018-07-23T11:47:54.343Z,61.14
2018-07-23T11:51:00.482Z,60.12
2018-07-23T11:54:07.571Z,60.88
2018-07-23T11:57:13.904Z,60.35
2018-07-23T12:00:19.583Z,60.05
2018-07-23T12:03:24.949Z,59.87
2018-07-23T12:06:32.029Z,59.87
2018-07-23T12:09:37.789Z,59.46
2018-07-23T12:12:44.831Z,60.14
2018-07-23T12:15:50.870Z,59.59
2018-07-23T12:18:57.001Z,59.30
2018-07-23T12:22:02.146Z,57.89
2018-07-23T12:25:07.521Z,58.67
2018-07-23T12:28:12.367Z,59.07
2018-07-23T12:31:17.835Z,59.37
2018-07-23T12:34:23.942Z,58.79
2018-07-23T12:37:29.888Z,59.36
2018-07-23T12:40:35.886Z,59.21
2018-07-23T12:43:42.993Z,59.23
2018-07-23T12:46:48.683Z,59.75
2018-07-23T12:49:54.761Z,59.24
2018-07-23T12:53:02.072Z,58.49
2018-07-23T12:56:07.914Z,58.85
2018-07-23T12:59:13.846Z,58.93
2018-07-23T13:02:19.072Z,59.53
2018-07-23T13:05:30.175Z,58.49
2018-07-23T13:08:35.291Z,58.31
2018-07-23T13:11:41.766Z,58.86
2018-07-23T13:14:48.876Z,59.00
2018-07-23T13:17:54.909Z,58.90
2018-07-23T13:21:01.234Z,58.99
2018-07-23T13:24:07.412Z,58.23
2018-07-23T13:27:13.523Z,57.87
2018-07-23T13:30:19.961Z,59.03
2018-07-23T13:33:26.048Z,58.17
2018-07-23T13:36:32.067Z,59.00
2018-07-23T13:39:37.232Z,58.56
2018-07-23T13:42:43.834Z,58.75
2018-07-23T13:45:49.716Z,57.86
2018-07-23T13:48:55.586Z,58.74
2018-07-23T13:52:01.556Z,57.61
2018-07-23T13:55:07.977Z,58.91
2018-07-23T13:58:13.554Z,57.82
2018-07-23T14:01:19.433Z,58.12
2018-07-23T14:04:24.794Z,58.62
2018-07-23T14:07:29.911Z,58.45
2018-07-23T14:10:35.056Z,58.51
2018-07-23T14:13:40.201Z,58.48
2018-07-23T14:16:45.522Z,58.07
2018-07-23T14:19:50.703Z,57.31
2018-07-23T14:22:56.244Z,58.36
2018-07-23T14:26:02.650Z,57.66
2018-07-23T14:29:08.047Z,57.87
2018-07-23T14:32:13.186Z,58.06
2018-07-23T14:35:18.318Z,58.35
2018-07-23T14:38:23.451Z,57.59
2018-07-23T14:41:28.634Z,57.84
2018-07-23T14:44:33.802Z,58.02
2018-07-23T14:47:38.944Z,58.08
2018-07-23T14:50:45.939Z,58.36
2018-07-23T14:53:51.707Z,58.15
2018-07-23T14:56:56.930Z,58.67
2018-07-23T15:00:03.025Z,57.44
2018-07-23T15:03:09.409Z,57.13
2018-07-23T15:06:15.290Z,56.79
2018-07-23T15:09:20.447Z,57.27
2018-07-23T15:12:26.875Z,55.84
2018-07-23T15:15:32.561Z,55.32
2018-07-23T15:18:37.722Z,55.99
2018-07-23T15:21:51.107Z,54.95
2018-07-23T15:24:56.548Z,55.18
2018-07-23T15:28:03.124Z,56.31
2018-07-23T15:31:09.123Z,54.78
2018-07-23T15:34:14.286Z,55.84
2018-07-23T15:37:20.834Z,55.10
2018-07-23T15:40:26.971Z,54.90
2018-07-23T15:43:32.687Z,54.63
2018-07-23T15:46:38.885Z,55.21
2018-07-23T15:49:44.883Z,54.61
2018-07-23T15:52:50.990Z,53.49
2018-07-23T15:55:56.791Z,53.82
2018-07-23T15:59:02.650Z,53.90
2018-07-23T16:02:08.736Z,54.03
2018-07-23T16:05:15.999Z,53.04
2018-07-23T16:08:22.235Z,53.56
2018-07-23T16:11:28.260Z,53.21
2018-07-23T16:14:35.356Z,53.64
2018-07-23T16:17:41.321Z,52.80
2018-07-23T16:20:47.449Z,53.74
2018-07-23T16:23:54.815Z,53.99
2018-07-23T16:27:00.837Z,53.33
2018-07-23T16:30:09.209Z,52.62
2018-07-23T16:33:15.217Z,52.67
2018-07-23T16:36:21.328Z,53.89
2018-07-23T16:39:27.437Z,52.76
2018-07-23T16:42:33.518Z,53.32
2018-07-23T16:45:38.722Z,53.53
2018-07-23T16:48:44.141Z,53.25
2018-07-23T16:51:49.348Z,52.17
2018-07-23T16:54:55.776Z,52.51
2018-07-23T16:58:01.001Z,52.31
2018-07-23T17:01:06.740Z,53.43
2018-07-23T17:04:15.574Z,53.75
2018-07-23T17:07:22.865Z,52.94
2018-07-23T17:10:30.219Z,53.25
2018-07-23T17:13:35.408Z,53.04
2018-07-23T17:16:41.818Z,54.32
2018-07-23T17:19:48.097Z,54.36
2018-07-23T17:22:53.238Z,54.30
2018-07-23T17:25:58.907Z,53.54
2018-07-23T17:29:06.597Z,53.59
2018-07-23T17:32:12.213Z,53.94
2018-07-23T17:35:18.114Z,54.84
2018-07-23T17:38:25.105Z,54.38
2018-07-23T17:41:31.123Z,53.95
2018-07-23T17:44:36.356Z,54.33
2018-07-23T17:47:42.591Z,54.72
2018-07-23T17:50:48.440Z,55.33
2018-07-23T17:53:53.598Z,55.38
2018-07-23T17:56:58.794Z,55.37
2018-07-23T18:00:04.985Z,55.60
2018-07-23T18:03:10.569Z,55.71
2018-07-23T18:06:17.995Z,55.03
2018-07-23T18:09:24.089Z,55.99
2018-07-23T18:12:29.797Z,55.25
2018-07-23T18:15:35.921Z,55.83
2018-07-23T18:18:41.140Z,56.03
2018-07-23T18:21:46.349Z,56.21
2018-07-23T18:24:52.403Z,56.47
2018-07-23T18:27:58.579Z,56.31
2018-07-23T18:31:04.682Z,55.67
2018-07-23T18:34:10.745Z,56.02
2018-07-23T18:37:16.095Z,57.08
2018-07-23T18:40:22.466Z,55.88
2018-07-23T18:43:28.684Z,56.00
2018-07-23T18:46:35.565Z,56.95
2018-07-23T18:50:02.860Z,56.76
2018-07-23T18:53:32.607Z,56.83
2018-07-23T18:56:52.861Z,56.93
2018-07-23T19:00:04.479Z,57.15
2018-07-23T19:03:10.382Z,57.20
2018-07-23T19:06:15.542Z,56.50
2018-07-23T19:09:22.561Z,57.43
2018-07-23T19:12:28.786Z,57.40
2018-07-23T19:15:34.379Z,57.91
2018-07-23T19:18:39.654Z,57.36
2018-07-23T19:21:45.710Z,57.26
2018-07-23T19:24:53.831Z,57.55
2018-07-23T19:27:59.823Z,58.34
2018-07-23T19:31:05.974Z,57.82
2018-07-23T19:34:11.448Z,58.00
2018-07-23T19:37:17.520Z,58.52
2018-07-23T19:40:23.630Z,57.77
2018-07-23T19:43:28.766Z,57.90
2018-07-23T19:46:33.917Z,57.97
2018-07-23T19:49:39.074Z,58.51
2018-07-23T19:52:44.740Z,58.26
2018-07-23T19:55:50.462Z,59.33
2018-07-23T19:58:56.588Z,59.47
2018-07-23T20:02:02.430Z,59.52
2018-07-23T20:05:09.513Z,59.04
2018-07-23T20:08:15.717Z,59.87
2018-07-23T20:11:22.399Z,60.02
2018-07-23T20:14:28.857Z,59.20
2018-07-23T20:17:35.354Z,59.87
2018-07-23T20:20:41.390Z,60.23
2018-07-23T20:23:47.474Z,60.21
2018-07-23T20:26:53.729Z,59.33
2018-07-23T20:30:00.697Z,60.56
2018-07-23T20:33:06.670Z,59.84
2018-07-23T20:36:12.551Z,60.79
2018-07-23T20:39:18.582Z,60.66
2018-07-23T20:42:24.049Z,60.36
2018-07-23T20:45:29.993Z,60.92
2018-07-23T20:48:36.082Z,60.75
2018-07-23T20:51:42.141Z,60.60
2018-07-23T20:54:48.050Z,61.00
2018-07-23T20:57:53.270Z,61.77
2018-07-23T21:00:59.722Z,61.07
2018-07-23T21:04:06.464Z,61.55
2018-07-23T21:07:13.786Z,61.18
2018-07-23T21:10:19.745Z,62.18
2018-07-23T21:13:25.802Z,62.14
2018-07-23T21:16:31.269Z,62.32
2018-07-23T21:19:37.500Z,62.27
2018-07-23T21:22:42.763Z,62.81
2018-07-23T21:25:48.299Z,62.04
2018-07-23T21:28:53.450Z,62.24
2018-07-23T21:31:58.551Z,62.15
2018-07-23T21:35:04.790Z,61.98
2018-07-23T21:38:09.913Z,63.05
2018-07-23T21:41:15.035Z,63.29
2018-07-23T21:44:20.396Z,62.92
2018-07-23T21:47:25.542Z,63.09
2018-07-23T21:50:31.567Z,62.88
2018-07-23T21:53:38.165Z,63.00
2018-07-23T21:56:44.031Z,63.79
2018-07-23T21:59:50.190Z,63.21
2018-07-23T22:02:57.018Z,63.28
2018-07-23T22:06:03.382Z,63.33
2018-07-23T22:09:10.094Z,63.44
2018-07-23T22:12:16.403Z,64.03
2018-07-23T22:15:22.079Z,62.71
2018-07-23T22:18:28.088Z,64.28
2018-07-23T22:21:34.510Z,64.23
2018-07-23T22:24:41.818Z,63.36
2018-07-23T22:27:47.676Z,63.48
2018-07-23T22:30:52.794Z,63.52
2018-07-23T22:33:57.931Z,63.63
2018-07-23T22:37:04.315Z,63.74
2018-07-23T22:40:11.208Z,63.70
2018-07-23T22:43:16.874Z,65.25
2018-07-23T22:46:21.758Z,64.10
2018-07-23T22:49:27.900Z,65.18
2018-07-23T22:52:34.070Z,65.19
2018-07-23T22:55:39.230Z,64.27
2018-07-23T22:58:44.878Z,64.31
2018-07-23T23:01:52.281Z,65.03
2018-07-23T23:04:58.217Z,64.85
2018-07-23T23:08:03.991Z,65.11
2018-07-23T23:11:11.062Z,64.98
2018-07-23T23:14:17.042Z,65.47
2018-07-23T23:17:23.077Z,65.14
2018-07-23T23:20:28.295Z,64.85
2018-07-23T23:23:34.370Z,65.58
2018-07-23T23:26:40.298Z,65.65
2018-07-23T23:29:46.196Z,65.57
2018-07-23T23:32:52.153Z,65.94
2018-07-23T23:35:57.315Z,65.60
2018-07-23T23:39:03.423Z,66.07
2018-07-23T23:42:08.258Z,65.37
2018-07-23T23:45:13.926Z,66.22
2018-07-23T23:48:19.041Z,66.00
2018-07-23T23:51:25.997Z,65.52
2018-07-23T23:54:33.742Z,65.50
2018-07-23T23:57:39.672Z,66.35
